Time;durP1;ratioP1;P1;durP2;ratioP2;P2;SDS_P1;SDS_P2;PMS_P1;PMS_P2;Temp;Humidity;BMP_temperature;BMP_pressure;BME280_temperature;BME280_humidity;BME280_pressure;Samples;Min_cycle;Max_cycle;Signal;HPM_P1;HPM_P2
2021/07/20 00:01:54;;;;;;;18.80;12.47;;;17.10;99.90;;;;;;5095666;28;20281;-80
2021/07/20 00:04:21;;;;;;;19.57;12.77;;;17.10;99.90;;;;;;5095216;28;20195;-80
2021/07/20 00:06:47;;;;;;;22.97;12.37;;;17.20;99.90;;;;;;5094696;28;20285;-79
2021/07/20 00:09:16;;;;;;;22.27;11.90;;;17.20;99.90;;;;;;5095648;28;20286;-79
2021/07/20 00:11:43;;;;;;;25.67;12.53;;;17.20;99.90;;;;;;5094780;28;20227;-79
2021/07/20 00:14:10;;;;;;;20.17;12.37;;;17.30;99.90;;;;;;5095583;28;20194;-80
2021/07/20 00:16:37;;;;;;;19.73;11.73;;;17.40;99.90;;;;;;5095652;28;20211;-79
2021/07/20 00:19:04;;;;;;;19.03;12.23;;;17.40;99.90;;;;;;5095080;28;20198;-79
2021/07/20 00:21:31;;;;;;;22.50;11.17;;;17.40;99.90;;;;;;5094750;28;20285;-79
2021/07/20 00:23:58;;;;;;;21.00;12.33;;;17.40;99.90;;;;;;5095198;28;20234;-79
2021/07/20 00:26:26;;;;;;;20.57;12.53;;;17.40;99.90;;;;;;5095245;28;20199;-80
2021/07/20 00:28:53;;;;;;;22.90;11.70;;;17.40;99.90;;;;;;5094732;28;20679;-80
2021/07/20 00:31:21;;;;;;;19.37;11.53;;;17.40;99.90;;;;;;5094706;28;20222;-79
2021/07/20 00:33:48;;;;;;;22.00;12.97;;;17.50;99.90;;;;;;5094895;28;20290;-80
2021/07/20 00:36:14;;;;;;;22.07;11.77;;;17.40;99.90;;;;;;5094397;28;20194;-80
2021/07/20 00:38:41;;;;;;;25.17;12.87;;;17.40;99.90;;;;;;5095305;28;20233;-79
2021/07/20 00:41:08;;;;;;;21.50;12.37;;;17.40;99.90;;;;;;5094992;28;20191;-80
2021/07/20 00:43:37;;;;;;;22.27;11.07;;;17.30;99.90;;;;;;5094796;28;20199;-79
2021/07/20 00:46:03;;;;;;;21.13;13.60;;;17.20;99.90;;;;;;5094822;28;20289;-80
2021/07/20 00:48:30;;;;;;;19.97;12.47;;;17.10;99.90;;;;;;5094699;28;20194;-79
2021/07/20 00:50:57;;;;;;;19.57;11.50;;;17.00;99.90;;;;;;5094088;28;20282;-80
2021/07/20 00:53:24;;;;;;;20.67;12.23;;;17.00;99.90;;;;;;5094799;28;20230;-80
2021/07/20 00:55:52;;;;;;;19.60;11.53;;;16.90;99.90;;;;;;5094855;28;20234;-80
2021/07/20 00:58:20;;;;;;;21.87;12.33;;;17.00;99.90;;;;;;5094861;28;20281;-80
2021/07/20 01:00:51;;;;;;;21.03;12.47;;;17.00;99.90;;;;;;5094532;28;20199;-79
2021/07/20 01:03:18;;;;;;;24.03;12.17;;;17.00;99.90;;;;;;5094826;28;20557;-80
2021/07/20 01:05:46;;;;;;;20.00;11.90;;;17.00;99.90;;;;;;5093567;28;20194;-79
2021/07/20 01:08:13;;;;;;;21.13;12.20;;;17.00;99.90;;;;;;5094540;28;20194;-79
2021/07/20 01:10:42;;;;;;;21.00;12.00;;;17.00;99.90;;;;;;5094357;28;20287;-80
2021/07/20 01:13:11;;;;;;;26.97;12.13;;;17.10;99.90;;;;;;5094415;28;20371;-79
2021/07/20 01:15:38;;;;;;;18.57;12.23;;;17.10;99.90;;;;;;5094532;28;20294;-80
2021/07/20 01:18:08;;;;;;;21.27;11.83;;;16.80;99.90;;;;;;5094247;28;20293;-79
2021/07/20 01:20:35;;;;;;;19.80;11.20;;;16.70;99.90;;;;;;5093516;28;20298;-79
2021/07/20 01:23:11;;;;;;;19.33;11.50;;;16.60;99.90;;;;;;5094156;28;20234;-79
2021/07/20 01:25:39;;;;;;;20.57;11.70;;;16.50;99.90;;;;;;5094012;28;20202;-80
2021/07/20 01:28:10;;;;;;;20.30;12.00;;;16.50;99.90;;;;;;5093857;28;20249;-79
2021/07/20 01:30:41;;;;;;;23.87;11.90;;;16.50;99.90;;;;;;5094171;28;20207;-80
2021/07/20 01:33:09;;;;;;;19.73;12.50;;;16.30;99.90;;;;;;5094282;28;20321;-79
2021/07/20 01:35:37;;;;;;;18.33;10.87;;;16.30;99.90;;;;;;5094149;28;20195;-79
2021/07/20 01:38:08;;;;;;;20.07;11.70;;;16.20;99.90;;;;;;5093541;28;20293;-79
2021/07/20 01:40:37;;;;;;;19.07;12.00;;;16.10;99.90;;;;;;5093970;28;20203;-79
2021/07/20 01:43:06;;;;;;;26.70;12.17;;;16.10;99.90;;;;;;5093968;28;20569;-79
2021/07/20 01:45:36;;;;;;;20.80;11.63;;;16.00;99.90;;;;;;5093905;28;20639;-80
2021/07/20 01:48:04;;;;;;;23.93;12.37;;;16.00;99.90;;;;;;5094440;28;20281;-79
2021/07/20 01:50:32;;;;;;;20.60;11.83;;;16.00;99.90;;;;;;5094302;28;20195;-79
2021/07/20 01:53:00;;;;;;;25.63;11.97;;;16.10;99.90;;;;;;5093126;28;20233;-79
2021/07/20 01:55:28;;;;;;;24.47;12.00;;;16.10;99.90;;;;;;5094038;28;20234;-80
2021/07/20 01:57:56;;;;;;;23.90;12.77;;;16.20;99.90;;;;;;5094205;28;20283;-79
2021/07/20 02:00:25;;;;;;;22.63;12.00;;;16.20;99.90;;;;;;5094120;28;20191;-79
2021/07/20 02:03:09;;;;;;;27.80;12.97;;;16.20;99.90;;;;;;5093956;28;20397;-80
2021/07/20 02:08:26;;;;;;;19.67;12.43;;;16.20;99.90;;;;;;5093861;28;20282;-79
2021/07/20 02:10:55;;;;;;;22.70;12.40;;;16.10;99.90;;;;;;5093203;28;20210;-80
2021/07/20 02:13:24;;;;;;;20.87;12.20;;;16.20;99.90;;;;;;5093016;28;20222;-79
2021/07/20 02:15:53;;;;;;;21.10;12.30;;;16.20;99.90;;;;;;5093685;28;20195;-80
2021/07/20 02:18:26;;;;;;;21.57;12.97;;;16.10;99.90;;;;;;5093503;28;20202;-79
2021/07/20 02:20:54;;;;;;;21.87;12.80;;;16.10;99.90;;;;;;5093756;28;20534;-79
2021/07/20 02:23:22;;;;;;;23.77;12.67;;;16.00;99.90;;;;;;5093875;28;20205;-79
2021/07/20 02:25:50;;;;;;;23.77;13.23;;;16.00;99.90;;;;;;5093645;28;20285;-80
2021/07/20 02:28:20;;;;;;;24.07;13.30;;;16.00;99.90;;;;;;5092497;28;20209;-79
2021/07/20 02:30:49;;;;;;;25.73;13.83;;;15.90;99.90;;;;;;5093610;28;20230;-79
2021/07/20 02:33:20;;;;;;;28.00;13.40;;;15.80;99.90;;;;;;5093278;28;20719;-79
2021/07/20 02:35:47;;;;;;;24.47;13.73;;;15.80;99.90;;;;;;5095896;28;20676;-79
2021/07/20 02:38:15;;;;;;;27.17;13.13;;;15.80;99.90;;;;;;5097298;28;20238;-79
2021/07/20 02:40:44;;;;;;;25.97;14.00;;;15.80;99.90;;;;;;5097048;28;20255;-79
2021/07/20 02:43:13;;;;;;;25.37;13.93;;;15.70;99.90;;;;;;5096313;28;20285;-79
2021/07/20 02:45:42;;;;;;;29.73;15.03;;;15.70;99.90;;;;;;5097292;28;20282;-79
2021/07/20 02:48:09;;;;;;;30.30;14.43;;;15.70;99.90;;;;;;5097116;28;20195;-79
2021/07/20 02:50:38;;;;;;;24.87;13.60;;;15.60;99.90;;;;;;5097048;28;20240;-80
2021/07/20 02:53:06;;;;;;;25.80;12.47;;;15.50;99.90;;;;;;5096902;28;20219;-79
2021/07/20 02:55:35;;;;;;;24.70;13.43;;;15.40;99.90;;;;;;5096815;28;20199;-79
2021/07/20 02:58:04;;;;;;;38.63;14.40;;;15.40;99.90;;;;;;5096507;28;20289;-79
2021/07/20 03:00:32;;;;;;;24.20;13.47;;;15.40;99.90;;;;;;5096114;28;20285;-79
2021/07/20 03:02:59;;;;;;;23.63;13.10;;;15.30;99.90;;;;;;5097025;28;20201;-79
2021/07/20 03:05:26;;;;;;;24.93;13.53;;;15.30;99.90;;;;;;5096692;28;20198;-80
2021/07/20 03:07:57;;;;;;;24.37;13.47;;;15.30;99.90;;;;;;5096594;28;20232;-79
2021/07/20 03:10:28;;;;;;;25.67;13.00;;;15.30;99.90;;;;;;5096665;28;20226;-80
2021/07/20 03:12:59;;;;;;;23.80;12.93;;;15.30;99.90;;;;;;5096570;28;20313;-79
2021/07/20 03:15:26;;;;;;;28.23;13.47;;;15.20;99.90;;;;;;5096031;28;20289;-79
2021/07/20 03:17:55;;;;;;;24.47;13.03;;;15.20;99.90;;;;;;5096449;28;20230;-79
2021/07/20 03:20:24;;;;;;;28.10;12.97;;;15.20;99.90;;;;;;5096531;28;20613;-79
2021/07/20 03:22:54;;;;;;;24.67;13.23;;;15.10;99.90;;;;;;5096652;28;20285;-78
2021/07/20 03:25:21;;;;;;;24.00;13.17;;;15.10;99.90;;;;;;5096532;28;20552;-79
2021/07/20 03:27:49;;;;;;;25.57;13.53;;;15.10;99.90;;;;;;5096197;28;20234;-79
2021/07/20 03:30:17;;;;;;;24.27;12.97;;;15.00;99.90;;;;;;5095559;28;20281;-79
2021/07/20 03:32:45;;;;;;;26.70;13.07;;;15.00;99.90;;;;;;5096109;28;20215;-79
2021/07/20 03:35:14;;;;;;;29.73;13.93;;;15.00;99.90;;;;;;5096124;28;20230;-79
2021/07/20 03:37:42;;;;;;;30.50;13.73;;;14.90;99.90;;;;;;5096142;28;20652;-79
2021/07/20 03:40:13;;;;;;;28.27;14.07;;;14.90;99.90;;;;;;5096096;28;20205;-79
2021/07/20 03:42:42;;;;;;;26.53;13.50;;;15.00;99.90;;;;;;5096154;28;20281;-79
2021/07/20 03:45:10;;;;;;;28.20;13.63;;;14.90;99.90;;;;;;5095511;28;20290;-79
2021/07/20 03:47:41;;;;;;;26.50;14.13;;;14.90;99.90;;;;;;5095076;28;20297;-80
2021/07/20 03:50:09;;;;;;;24.37;13.07;;;14.90;99.90;;;;;;5096244;28;20199;-79
2021/07/20 03:52:39;;;;;;;27.17;13.87;;;14.90;99.90;;;;;;5095726;28;20229;-78
2021/07/20 03:55:08;;;;;;;33.53;13.77;;;14.80;99.90;;;;;;5095789;28;20260;-79
2021/07/20 03:57:37;;;;;;;26.63;14.03;;;14.80;99.90;;;;;;5095887;28;20294;-79
2021/07/20 04:00:08;;;;;;;26.53;13.90;;;14.80;99.90;;;;;;5095518;28;20227;-79
2021/07/20 04:02:45;;;;;;;27.60;13.53;;;14.80;99.90;;;;;;5094944;28;20282;-79
2021/07/20 04:05:14;;;;;;;24.10;13.47;;;14.80;99.90;;;;;;5095599;28;20690;-78
2021/07/20 04:07:42;;;;;;;25.90;13.70;;;14.80;99.90;;;;;;5095364;28;20195;-79
2021/07/20 04:10:11;;;;;;;27.20;13.77;;;14.80;99.90;;;;;;5095797;28;20748;-79
2021/07/20 04:12:40;;;;;;;28.70;14.03;;;14.80;99.90;;;;;;5095319;28;20309;-79
2021/07/20 04:15:07;;;;;;;28.03;14.53;;;14.80;99.90;;;;;;5095517;28;20198;-79
2021/07/20 04:17:35;;;;;;;25.00;13.83;;;14.90;99.90;;;;;;5095281;28;20278;-79
2021/07/20 04:20:02;;;;;;;30.53;14.20;;;14.90;99.90;;;;;;5094744;28;20290;-79
2021/07/20 04:22:29;;;;;;;29.20;14.53;;;14.80;99.90;;;;;;5095195;28;20187;-79
2021/07/20 04:24:57;;;;;;;30.57;15.10;;;14.80;99.90;;;;;;5095269;28;20290;-79
2021/07/20 04:27:25;;;;;;;31.03;15.03;;;14.80;99.90;;;;;;5094958;28;20297;-78
2021/07/20 04:29:53;;;;;;;31.33;15.53;;;14.90;99.90;;;;;;5095186;28;20256;-79
2021/07/20 04:32:20;;;;;;;24.90;14.30;;;15.00;99.90;;;;;;5095209;28;20237;-79
2021/07/20 04:34:47;;;;;;;27.83;14.80;;;15.10;99.90;;;;;;5094476;28;20198;-78
2021/07/20 04:37:16;;;;;;;28.80;15.57;;;15.20;99.90;;;;;;5094903;28;20293;-79
2021/07/20 04:39:43;;;;;;;32.37;15.73;;;15.30;99.90;;;;;;5094924;28;20191;-79
2021/07/20 04:42:10;;;;;;;26.70;15.03;;;15.30;99.90;;;;;;5095211;28;20199;-79
2021/07/20 04:44:37;;;;;;;32.40;14.43;;;15.30;99.90;;;;;;5095156;28;20286;-79
2021/07/20 04:47:06;;;;;;;29.73;14.80;;;15.30;99.90;;;;;;5094726;28;20551;-79
2021/07/20 04:49:34;;;;;;;32.23;14.70;;;15.40;99.90;;;;;;5094126;28;20230;-79
2021/07/20 04:52:03;;;;;;;28.43;14.17;;;15.50;99.90;;;;;;5094908;28;20205;-78
2021/07/20 04:54:30;;;;;;;30.53;14.20;;;15.50;99.90;;;;;;5094639;28;20321;-79
2021/07/20 04:57:00;;;;;;;30.60;15.13;;;15.50;99.90;;;;;;5094701;28;20291;-79
2021/07/20 04:59:27;;;;;;;29.47;14.33;;;15.60;99.90;;;;;;5094137;28;20658;-78
2021/07/20 05:01:55;;;;;;;33.00;15.77;;;15.60;99.90;;;;;;5094351;28;20838;-79
2021/07/20 05:04:25;;;;;;;30.00;14.83;;;15.70;99.90;;;;;;5093869;28;20289;-79
2021/07/20 05:06:52;;;;;;;27.87;14.50;;;15.90;99.90;;;;;;5094695;28;20230;-79
2021/07/20 05:09:20;;;;;;;26.80;14.57;;;16.00;99.90;;;;;;5094482;28;20252;-78
2021/07/20 05:11:47;;;;;;;26.00;14.00;;;16.00;99.90;;;;;;5094854;28;20198;-79
2021/07/20 05:14:17;;;;;;;28.90;15.33;;;16.20;99.90;;;;;;5094473;28;20317;-79
2021/07/20 05:16:44;;;;;;;32.43;15.60;;;16.40;99.90;;;;;;5094453;28;20285;-79
2021/07/20 05:19:12;;;;;;;29.13;15.53;;;17.00;99.90;;;;;;5093628;28;20668;-79
2021/07/20 05:21:40;;;;;;;29.70;15.00;;;17.40;99.90;;;;;;5094457;28;20301;-79
2021/07/20 05:24:07;;;;;;;28.63;13.67;;;17.80;99.90;;;;;;5094490;28;20229;-79
2021/07/20 05:26:35;;;;;;;26.63;14.97;;;18.20;99.90;;;;;;5094177;28;20671;-79
2021/07/20 05:29:02;;;;;;;26.57;15.10;;;18.60;99.90;;;;;;5094092;28;20254;-79
2021/07/20 05:31:31;;;;;;;25.47;14.27;;;18.80;99.90;;;;;;5094231;28;20179;-79
2021/07/20 05:33:58;;;;;;;28.90;15.23;;;19.20;99.90;;;;;;5093129;28;20310;-79
2021/07/20 05:36:27;;;;;;;27.13;14.73;;;19.20;99.90;;;;;;5094380;28;20226;-79
2021/07/20 05:38:55;;;;;;;23.10;14.27;;;19.20;99.90;;;;;;5094190;28;20199;-79
2021/07/20 05:41:22;;;;;;;29.77;15.20;;;19.60;99.90;;;;;;5094152;28;20574;-79
2021/07/20 05:43:49;;;;;;;26.97;14.37;;;20.30;99.90;;;;;;5094275;28;20294;-79
2021/07/20 05:46:17;;;;;;;24.53;14.40;;;20.80;99.90;;;;;;5094135;28;20195;-79
2021/07/20 05:48:44;;;;;;;24.20;14.87;;;20.90;99.90;;;;;;5093054;28;20230;-79
2021/07/20 05:51:13;;;;;;;28.13;14.98;;;21.40;99.90;;;;;;5093763;28;20241;-79
2021/07/20 05:53:41;;;;;;;25.50;15.07;;;21.20;99.90;;;;;;5094027;28;20355;-79
2021/07/20 05:56:10;;;;;;;25.60;14.82;;;21.70;99.90;;;;;;5093940;28;20270;-79
2021/07/20 05:58:38;;;;;;;25.27;13.82;;;21.80;99.90;;;;;;5093864;28;20657;-79
2021/07/20 06:01:08;;;;;;;22.80;14.00;;;22.20;99.90;;;;;;5094115;28;20286;-79
2021/07/20 06:03:35;;;;;;;25.35;14.93;;;21.70;99.90;;;;;;5093420;28;20195;-79
2021/07/20 06:06:04;;;;;;;27.27;14.05;;;21.20;99.90;;;;;;5093243;28;20568;-80
2021/07/20 06:08:31;;;;;;;24.23;14.93;;;20.30;99.90;;;;;;5094276;28;20190;-79
2021/07/20 06:11:02;;;;;;;28.00;14.70;;;19.90;99.90;;;;;;5096594;28;20206;-79
2021/07/20 06:13:34;;;;;;;22.40;13.70;;;20.10;99.90;;;;;;5097659;28;20305;-79
2021/07/20 06:16:03;;;;;;;26.30;15.00;;;20.90;99.90;;;;;;5098128;28;20285;-79
2021/07/20 06:18:30;;;;;;;24.67;14.73;;;21.30;99.90;;;;;;5097856;28;20285;-79
2021/07/20 06:21:00;;;;;;;23.13;13.38;;;22.10;99.90;;;;;;5097034;28;20282;-79
2021/07/20 06:23:33;;;;;;;23.40;14.63;;;22.30;99.90;;;;;;5097841;28;20699;-79
2021/07/20 06:26:01;;;;;;;28.37;15.00;;;21.60;99.90;;;;;;5098170;28;20224;-79
2021/07/20 06:28:28;;;;;;;25.43;14.47;;;20.50;99.90;;;;;;5097801;28;20739;-79
2021/07/20 06:30:57;;;;;;;24.00;14.27;;;19.90;99.90;;;;;;5098079;28;20290;-79
2021/07/20 06:33:27;;;;;;;26.33;14.20;;;20.40;99.90;;;;;;5097526;28;20206;-79
2021/07/20 06:35:55;;;;;;;23.63;13.80;;;20.50;99.90;;;;;;5096703;28;20242;-79
2021/07/20 06:38:24;;;;;;;23.93;13.70;;;21.20;99.90;;;;;;5097249;28;20274;-79
2021/07/20 06:40:53;;;;;;;23.40;14.60;;;22.20;99.90;;;;;;5097104;28;20527;-79
2021/07/20 06:43:21;;;;;;;25.63;14.23;;;22.40;99.90;;;;;;5097409;28;20286;-79
2021/07/20 06:45:50;;;;;;;24.17;13.13;;;22.70;99.90;;;;;;5097427;28;20195;-79
2021/07/20 06:48:21;;;;;;;25.45;14.43;;;23.30;99.90;;;;;;5097336;28;20201;-79
2021/07/20 06:50:48;;;;;;;22.27;14.07;;;23.50;99.90;;;;;;5096991;28;20260;-80
2021/07/20 06:53:16;;;;;;;21.85;13.07;;;23.50;99.90;;;;;;5096119;28;20215;-80
2021/07/20 06:55:49;;;;;;;24.50;14.32;;;23.10;99.90;;;;;;5096379;28;20238;-80
2021/07/20 06:58:18;;;;;;;26.88;14.73;;;23.20;99.90;;;;;;5096331;28;20622;-80
2021/07/20 07:00:48;;;;;;;20.75;13.95;;;23.50;99.90;;;;;;5096104;28;20613;-79
2021/07/20 07:03:19;;;;;;;23.55;13.98;;;23.00;99.90;;;;;;5096293;28;20209;-80
2021/07/20 07:05:47;;;;;;;27.55;13.80;;;22.60;99.90;;;;;;5095951;28;20290;-80
2021/07/20 07:08:15;;;;;;;20.98;13.23;;;22.50;99.90;;;;;;5096118;28;20222;-79
2021/07/20 07:10:42;;;;;;;23.00;14.93;;;22.40;99.90;;;;;;5095996;28;20609;-81
2021/07/20 07:13:09;;;;;;;23.30;13.95;;;22.40;99.90;;;;;;5095902;28;20194;-79
2021/07/20 07:15:37;;;;;;;24.25;13.55;;;21.50;99.90;;;;;;5095824;28;20260;-79
2021/07/20 07:18:05;;;;;;;22.45;13.13;;;21.50;99.90;;;;;;5095775;28;20649;-79
2021/07/20 07:20:33;;;;;;;23.97;14.37;;;21.70;99.90;;;;;;5095174;28;20742;-79
2021/07/20 07:23:03;;;;;;;23.47;13.80;;;21.90;99.90;;;;;;5095643;28;20205;-79
2021/07/20 07:25:31;;;;;;;21.27;12.48;;;22.40;99.90;;;;;;5096543;28;20241;-79
2021/07/20 07:27:59;;;;;;;25.15;13.05;;;23.30;99.90;;;;;;5096509;28;20289;-80
2021/07/20 07:30:26;;;;;;;19.98;12.55;;;23.90;99.90;;;;;;5095970;28;20217;-80
2021/07/20 07:32:54;;;;;;;22.65;13.73;;;25.00;99.90;;;;;;5095835;28;20286;-79
2021/07/20 07:35:22;;;;;;;25.98;13.52;;;25.00;99.90;;;;;;5096561;28;20206;-80
2021/07/20 07:37:55;;;;;;;19.90;12.73;;;25.10;99.90;;;;;;5095589;28;20198;-80
2021/07/20 07:40:24;;;;;;;19.65;12.00;;;25.50;99.90;;;;;;5095682;28;20241;-79
2021/07/20 07:42:51;;;;;;;17.17;12.27;;;25.80;99.90;;;;;;5095090;28;20248;-80
2021/07/20 07:45:19;;;;;;;20.20;12.77;;;25.90;99.90;;;;;;5095438;28;20230;-80
2021/07/20 07:47:46;;;;;;;17.73;11.45;;;26.40;99.90;;;;;;5095147;28;20199;-80
2021/07/20 07:50:14;;;;;;;20.95;11.85;;;26.90;99.90;;;;;;5095094;28;20194;-80
2021/07/20 07:52:42;;;;;;;18.20;11.80;;;27.00;99.90;;;;;;5095180;28;20281;-80
2021/07/20 07:55:13;;;;;;;14.05;10.38;;;27.60;99.90;;;;;;5095012;28;20673;-81
2021/07/20 07:57:43;;;;;;;16.88;11.95;;;27.60;99.90;;;;;;5094920;28;20285;-80
2021/07/20 08:00:11;;;;;;;16.80;11.55;;;27.00;99.90;;;;;;5095145;28;20238;-79
2021/07/20 08:02:40;;;;;;;15.13;11.27;;;27.70;99.90;;;;;;5094283;28;20237;-79
2021/07/20 08:05:09;;;;;;;15.23;11.00;;;28.60;99.90;;;;;;5094731;28;20667;-79
2021/07/20 08:07:38;;;;;;;14.10;9.60;;;29.00;99.90;;;;;;5094784;28;20285;-79
2021/07/20 08:10:09;;;;;;;15.80;10.43;;;29.40;99.90;;;;;;5094528;28;20201;-79
2021/07/20 08:12:39;;;;;;;15.38;10.73;;;30.30;99.90;;;;;;5095344;28;20237;-79
2021/07/20 08:15:06;;;;;;;12.52;9.07;;;30.70;99.90;;;;;;5095190;28;20313;-80
2021/07/20 08:17:34;;;;;;;12.63;9.73;;;30.90;99.90;;;;;;5094981;28;20619;-79
2021/07/20 08:20:04;;;;;;;14.07;9.35;;;30.60;99.90;;;;;;5094701;28;20286;-80
2021/07/20 08:22:31;;;;;;;13.40;9.95;;;29.70;99.90;;;;;;5095437;28;20599;-79
2021/07/20 08:25:04;;;;;;;16.13;9.45;;;29.60;99.90;;;;;;5094392;28;20282;-79
2021/07/20 08:27:37;;;;;;;13.18;9.93;;;30.00;99.90;;;;;;5094419;28;20302;-79
2021/07/20 08:30:08;;;;;;;11.32;9.60;;;30.20;99.90;;;;;;5094503;28;20285;-80
2021/07/20 08:32:42;;;;;;;14.38;9.80;;;30.20;99.90;;;;;;5093551;28;20314;-79
2021/07/20 08:35:15;;;;;;;14.20;10.25;;;30.40;99.90;;;;;;5093978;28;20233;-79
2021/07/20 08:37:45;;;;;;;14.10;10.02;;;29.90;99.90;;;;;;5094173;28;20707;-79
2021/07/20 08:40:22;;;;;;;15.75;9.88;;;29.70;99.90;;;;;;5095059;28;20277;-80
2021/07/20 08:42:59;;;;;;;12.00;9.68;;;29.20;99.90;;;;;;5094330;28;20206;-80
2021/07/20 08:45:32;;;;;;;14.00;9.95;;;28.90;99.90;;;;;;5094252;28;20215;-79
2021/07/20 08:48:16;;;;;;;13.68;10.10;;;29.60;99.90;;;;;;5094840;28;20297;-79
2021/07/20 08:50:47;;;;;;;15.32;11.00;;;30.20;99.90;;;;;;5094926;28;20289;-79
2021/07/20 08:53:24;;;;;;;13.55;10.27;;;30.00;99.90;;;;;;5094707;28;20253;-80
2021/07/20 08:55:53;;;;;;;14.75;10.75;;;30.00;99.90;;;;;;5094570;28;20226;-81
2021/07/20 08:58:27;;;;;;;14.98;10.18;;;29.30;99.90;;;;;;5094573;28;20242;-79
2021/07/20 09:01:01;;;;;;;13.95;10.23;;;28.70;99.90;;;;;;5094456;28;20281;-79
2021/07/20 09:03:42;;;;;;;14.32;10.18;;;29.60;99.90;;;;;;5093849;28;20850;-80
2021/07/20 09:06:12;;;;;;;14.05;10.00;;;28.10;99.90;;;;;;5093699;28;20644;-79
2021/07/20 09:08:44;;;;;;;14.27;10.15;;;29.70;99.90;;;;;;5094704;28;20205;-79
2021/07/20 09:11:13;;;;;;;14.25;9.65;;;30.60;99.90;;;;;;5094734;28;20199;-79
2021/07/20 09:13:47;;;;;;;14.35;10.43;;;30.40;99.90;;;;;;5094358;28;20225;-79
2021/07/20 09:16:25;;;;;;;12.80;10.20;;;30.50;99.90;;;;;;5094547;28;20737;-79
2021/07/20 09:18:56;;;;;;;16.40;10.45;;;30.60;99.90;;;;;;5094223;28;20230;-80
2021/07/20 09:21:27;;;;;;;15.63;10.50;;;31.30;99.90;;;;;;5094373;28;20281;-79
2021/07/20 09:24:01;;;;;;;18.75;10.70;;;33.20;99.90;;;;;;5093640;28;20234;-79
2021/07/20 09:26:35;;;;;;;15.43;10.48;;;33.80;99.90;;;;;;5094603;28;20236;-80
2021/07/20 09:29:06;;;;;;;16.23;10.80;;;32.20;99.90;;;;;;5094557;28;20202;-79
2021/07/20 09:31:49;;;;;;;18.05;10.80;;;32.80;99.90;;;;;;5094250;28;20279;-81
2021/07/20 09:34:22;;;;;;;16.95;11.45;;;32.20;99.90;;;;;;5094134;28;20258;-80
2021/07/20 09:36:58;;;;;;;16.15;10.57;;;31.90;99.90;;;;;;5094199;28;20248;-79
2021/07/20 09:39:44;;;;;;;16.80;10.63;;;33.10;99.90;;;;;;5094259;28;20194;-79
2021/07/20 09:42:21;;;;;;;12.98;10.23;;;34.50;99.90;;;;;;5094127;28;20293;-80
2021/07/20 09:44:52;;;;;;;14.15;10.15;;;33.70;99.90;;;;;;5093124;28;20230;-80
2021/07/20 09:47:26;;;;;;;15.40;11.00;;;31.80;99.90;;;;;;5094183;28;20332;-79
2021/07/20 09:50:07;;;;;;;16.73;11.27;;;31.70;99.90;;;;;;5093876;28;20301;-80
2021/07/20 09:53:27;;;;;;;17.63;11.95;;;31.70;99.90;;;;;;5093783;28;20195;-80
2021/07/20 09:56:08;;;;;;;18.10;12.10;;;30.40;99.90;;;;;;5093920;28;20222;-79
2021/07/20 09:58:43;;;;;;;17.10;11.20;;;31.80;99.90;;;;;;5093825;28;20221;-79
2021/07/20 10:01:17;;;;;;;16.00;10.75;;;32.80;99.90;;;;;;5093890;28;20198;-79
2021/07/20 10:03:56;;;;;;;14.82;10.60;;;33.30;99.90;;;;;;5093910;28;20306;-80
2021/07/20 10:06:32;;;;;;;17.65;11.25;;;32.70;99.90;;;;;;5093912;28;20230;-79
2021/07/20 10:09:02;;;;;;;20.45;12.13;;;32.80;99.90;;;;;;5093725;28;20240;-79
2021/07/20 10:11:37;;;;;;;20.15;11.25;;;31.70;99.90;;;;;;5093116;28;20199;-80
2021/07/20 10:14:39;;;;;;;15.30;11.50;;;30.50;99.90;;;;;;5093066;28;20201;-80
2021/07/20 10:17:14;;;;;;;19.58;11.52;;;31.30;99.90;;;;;;5044896;28;20234;-80
2021/07/20 10:19:48;;;;;;;20.77;13.23;;;30.60;99.90;;;;;;5092814;28;20317;-80
2021/07/20 10:22:21;;;;;;;19.85;11.88;;;31.00;99.90;;;;;;5093017;28;20208;-79
2021/07/20 10:24:54;;;;;;;15.77;10.35;;;31.80;99.90;;;;;;5092816;28;20566;-80
2021/07/20 10:27:28;;;;;;;22.67;11.88;;;32.90;99.90;;;;;;5092745;28;20294;-80
2021/07/20 10:30:02;;;;;;;15.15;11.35;;;31.00;99.90;;;;;;5092833;28;20249;-80
2021/07/20 10:32:38;;;;;;;17.15;11.25;;;30.20;99.90;;;;;;5093094;28;20199;-79
2021/07/20 10:35:13;;;;;;;19.38;11.15;;;30.70;99.90;;;;;;5092809;28;20322;-79
2021/07/20 10:37:45;;;;;;;15.02;10.82;;;31.40;99.90;;;;;;5092805;28;20285;-79
2021/07/20 10:40:15;;;;;;;16.70;11.10;;;32.80;99.90;;;;;;5092750;28;20290;-80
2021/07/20 10:42:48;;;;;;;16.88;10.73;;;33.70;99.90;;;;;;5092810;28;20195;-79
2021/07/20 10:45:16;;;;;;;15.15;11.30;;;33.70;99.90;;;;;;5092830;28;20199;-79
2021/07/20 10:47:48;;;;;;;14.02;10.32;;;33.60;99.90;;;;;;5092640;28;20199;-79
2021/07/20 10:50:24;;;;;;;15.70;10.77;;;31.50;99.90;;;;;;5092600;28;20307;-79
2021/07/20 10:53:10;;;;;;;12.50;9.45;;;30.00;99.90;;;;;;5092544;28;20244;-79
2021/07/20 10:55:46;;;;;;;14.48;10.13;;;30.60;99.90;;;;;;5092944;28;20313;-79
2021/07/20 10:58:23;;;;;;;13.73;9.10;;;32.10;99.90;;;;;;5096336;28;20288;-79
2021/07/20 11:00:57;;;;;;;14.30;9.50;;;33.20;99.90;;;;;;5096057;28;20683;-79
2021/07/20 11:03:35;;;;;;;14.30;10.73;;;34.00;99.90;;;;;;5095965;28;20202;-79
2021/07/20 11:06:05;;;;;;;11.57;9.60;;;33.80;99.90;;;;;;5096009;28;20199;-80
2021/07/20 11:08:36;;;;;;;12.38;9.88;;;31.60;99.90;;;;;;5096047;28;20237;-79
2021/07/20 11:11:03;;;;;;;15.05;10.75;;;30.30;99.90;;;;;;5095942;28;20676;-79
2021/07/20 11:13:33;;;;;;;14.20;10.15;;;29.90;99.90;;;;;;5095765;28;20203;-79
2021/07/20 11:16:11;;;;;;;15.23;10.95;;;30.00;99.90;;;;;;5095710;28;20234;-78
2021/07/20 11:18:41;;;;;;;15.20;11.50;;;31.00;99.90;;;;;;5095811;28;20198;-78
2021/07/20 11:21:13;;;;;;;19.08;11.25;;;31.00;99.90;;;;;;5095528;28;20289;-78
2021/07/20 11:23:43;;;;;;;16.15;10.77;;;32.50;99.90;;;;;;5095814;28;20337;-79
2021/07/20 11:26:11;;;;;;;14.30;10.57;;;33.40;99.90;;;;;;5095560;28;20658;-78
2021/07/20 11:28:39;;;;;;;13.55;9.27;;;33.80;99.90;;;;;;5095571;28;20737;-79
2021/07/20 11:31:11;;;;;;;15.13;10.43;;;34.70;99.90;;;;;;5095551;28;20234;-79
2021/07/20 11:33:42;;;;;;;14.75;10.48;;;33.50;99.90;;;;;;5096224;28;20232;-78
2021/07/20 11:36:14;;;;;;;13.30;9.98;;;33.40;99.90;;;;;;5096074;28;20309;-79
2021/07/20 11:38:44;;;;;;;18.08;10.90;;;33.60;99.90;;;;;;5096030;28;20210;-78
2021/07/20 11:41:34;;;;;;;12.48;9.70;;;33.60;99.90;;;;;;5095837;28;20301;-78
2021/07/20 11:44:11;;;;;;;14.57;9.80;;;32.10;99.90;;;;;;5095955;28;20213;-79
2021/07/20 11:46:44;;;;;;;13.18;10.35;;;31.30;99.90;;;;;;5095738;28;20656;-79
2021/07/20 11:49:16;;;;;;;14.18;10.57;;;30.30;99.90;;;;;;5095135;28;20656;-79
2021/07/20 11:51:51;;;;;;;14.73;10.07;;;30.20;99.90;;;;;;5095918;28;20285;-80
2021/07/20 11:54:28;;;;;;;15.32;10.23;;;31.00;99.90;;;;;;5095795;28;20293;-78
2021/07/20 11:57:06;;;;;;;17.92;10.25;;;31.40;99.90;;;;;;5095761;28;20229;-78
2021/07/20 12:00:14;;;;;;;22.90;9.85;;;32.60;99.90;;;;;;5095177;28;20194;-79
2021/07/20 12:03:19;;;;;;;15.32;10.02;;;31.60;99.90;;;;;;5095412;28;20323;-79
2021/07/20 12:06:06;;;;;;;16.40;11.27;;;31.10;99.90;;;;;;5095490;28;20599;-79
2021/07/20 12:08:51;;;;;;;16.00;10.15;;;29.60;99.90;;;;;;5095605;28;20202;-79
2021/07/20 12:11:22;;;;;;;16.65;11.07;;;29.10;99.90;;;;;;5095688;28;20199;-78
2021/07/20 12:13:50;;;;;;;13.95;9.93;;;30.60;99.90;;;;;;5095437;28;20285;-79
2021/07/20 12:16:17;;;;;;;14.40;9.93;;;31.50;99.90;;;;;;5094244;28;20219;-79
2021/07/20 12:18:53;;;;;;;13.25;9.95;;;32.10;99.90;;;;;;5094366;28;20242;-78
2021/07/20 12:21:22;;;;;;;13.82;9.73;;;32.50;99.90;;;;;;5094645;28;20256;-78
2021/07/20 12:23:54;;;;;;;14.30;9.55;;;32.20;99.90;;;;;;5094434;28;20289;-79
2021/07/20 12:26:22;;;;;;;12.30;9.80;;;31.10;99.90;;;;;;5094530;28;20560;-78
2021/07/20 12:28:50;;;;;;;15.48;9.70;;;30.70;99.90;;;;;;5094079;28;20305;-79
2021/07/20 12:31:18;;;;;;;14.45;9.95;;;30.70;99.90;;;;;;5094646;28;20199;-79
2021/07/20 12:33:45;;;;;;;14.77;10.00;;;31.50;99.90;;;;;;5094449;28;20287;-79
2021/07/20 12:36:13;;;;;;;14.65;10.75;;;30.60;99.90;;;;;;5094302;28;20651;-78
2021/07/20 12:38:40;;;;;;;14.30;10.10;;;30.00;99.90;;;;;;5094316;28;20199;-79
2021/07/20 12:41:11;;;;;;;16.75;10.35;;;29.50;99.90;;;;;;5094160;28;20201;-78
2021/07/20 12:43:41;;;;;;;17.23;11.93;;;29.10;99.90;;;;;;5094170;28;20767;-78
2021/07/20 12:46:13;;;;;;;16.33;11.48;;;28.40;99.90;;;;;;5094291;28;20191;-79
2021/07/20 12:48:47;;;;;;;15.80;10.13;;;28.00;99.90;;;;;;5093910;28;20290;-78